Faribault, MN

10:19 AM CDT on October 19, 2017 (GMT -0500)
Faribault Municipal

Weather History for KFBL - November, 2012

Change the Weather History Date:

Monday, November 26, 2012

  Actual Average Record
Temperature  
Mean Temperature 16 °F -  
Max Temperature 23 °F 36 °F 61 °F (1960)
Min Temperature 10 °F 19 °F -15 °F (1977)
Degree Days  
Heating Degree Days 48    
Moisture  
Dew Point 8 °F    
Average Humidity 71    
Maximum Humidity 85    
Minimum Humidity 54    
Precipitation  
Precipitation 0.00 in - - ()
Sea Level Pressure  
Sea Level Pressure 30.33 in    
Wind  
Wind Speed 8 mph (WNW)    
Max Wind Speed 13 mph    
Max Gust Speed 17 mph    
Visibility 10 miles    
Events      
Averages and records for this station are not official NWS values.
T = Trace of Precipitation, MM = Missing Value Source: NWS Daily Summary

Daily Weather History Graph

Daily Weather History Graph

Search for Another Location

Airport or City:

Trip Planner

Search our weather history database for the weather conditions in past years. The results will help you decide how hot, cold, wet, or windy it might be!

Date:

Astronomy

Nov. 26, 2012 Rise Set
Actual Time 7:23 AM CST 4:37 PM CST
Civil Twilight 6:51 AM CST 5:09 PM CST
Nautical Twilight 6:15 AM CST 5:45 PM CST
Astronomical Twilight 5:40 AM CST 6:20 PM CST
Moon 3:32 PM CST (11/26) 5:32 AM CST (11/26)
Length of Visible Light 10h 18m
Length of Day
9h 13m
Waxing Gibbous, 97% of the Moon is Illuminated
Nov 26
Waxing Gibbous
Nov 28
Full
Dec 6
Last Quarter
Dec 13
New
Dec 19
First Quarter

Hourly Weather History & Observations

Time (CST) Temp. Windchill Dew Point Humidity Pressure Visibility Wind Dir Wind Speed Gust Speed Precip Events Conditions
12:14 AM 23.0 °F 12.4 °F 12.2 °F 63% 30.16 in 10.0 mi NW 10.4 mph 17.3 mph N/A   Clear
12:34 AM 21.2 °F 11.7 °F 12.2 °F 68% 30.16 in 10.0 mi NW 8.1 mph 16.1 mph N/A   Clear
12:54 AM 21.2 °F 10.1 °F 12.2 °F 68% 30.17 in 10.0 mi NNW 10.4 mph - N/A   Scattered Clouds
1:13 AM 21.2 °F 11.7 °F 10.4 °F 63% 30.17 in 10.0 mi NW 8.1 mph - N/A   Mostly Cloudy
1:34 AM 21.2 °F 12.6 °F 10.4 °F 63% 30.18 in 10.0 mi NW 6.9 mph - N/A   Overcast
1:54 AM 21.2 °F 9.5 °F 10.4 °F 63% 30.19 in 10.0 mi NNW 11.5 mph - N/A   Overcast
2:13 AM 21.2 °F 11.7 °F 10.4 °F 63% 30.20 in 10.0 mi NNW 8.1 mph - N/A   Overcast
2:34 AM 21.2 °F 11.7 °F 10.4 °F 63% 30.21 in 10.0 mi NW 8.1 mph - N/A   Overcast
2:54 AM 21.2 °F 11.7 °F 12.2 °F 68% 30.21 in 10.0 mi NW 8.1 mph 16.1 mph N/A   Overcast
3:13 AM 21.2 °F 11.7 °F 10.4 °F 63% 30.21 in 10.0 mi NW 8.1 mph - N/A   Overcast
3:34 AM 19.4 °F 8.6 °F 8.6 °F 63% 30.22 in 10.0 mi WNW 9.2 mph - N/A   Overcast
3:54 AM 19.4 °F 7.9 °F 8.6 °F 63% 30.22 in 10.0 mi NW 10.4 mph - N/A   Overcast
4:14 AM 17.6 °F 4.3 °F 8.6 °F 68% 30.23 in 10.0 mi NNW 12.7 mph - N/A   Overcast
4:34 AM 15.8 °F 3.4 °F 8.6 °F 73% 30.24 in 10.0 mi NW 10.4 mph - N/A   Scattered Clouds
4:54 AM 14.0 °F 1.2 °F 8.6 °F 79% 30.25 in 10.0 mi WNW 10.4 mph - N/A   Clear
5:14 AM 12.2 °F -0.2 °F 6.8 °F 79% 30.25 in 10.0 mi WNW 9.2 mph - N/A   Clear
5:34 AM 12.2 °F 1.7 °F 6.8 °F 79% 30.27 in 10.0 mi WNW 6.9 mph - N/A   Clear
5:53 AM 12.2 °F 1.7 °F 6.8 °F 79% 30.27 in 10.0 mi NW 6.9 mph - N/A   Clear
6:14 AM 10.4 °F -2.4 °F 6.8 °F 85% 30.28 in 10.0 mi WNW 9.2 mph - N/A   Clear
6:34 AM 10.4 °F -1.5 °F 6.8 °F 85% 30.29 in 10.0 mi WNW 8.1 mph - N/A   Clear
6:54 AM 10.4 °F -3.3 °F 6.8 °F 85% 30.30 in 10.0 mi WNW 10.4 mph - N/A   Clear
7:14 AM 10.4 °F -2.4 °F 6.8 °F 85% 30.30 in 10.0 mi WNW 9.2 mph - N/A   Clear
7:34 AM 10.4 °F -2.4 °F 6.8 °F 85% 30.32 in 10.0 mi WNW 9.2 mph - N/A   Clear
7:53 AM 10.4 °F -0.4 °F 6.8 °F 85% 30.32 in 10.0 mi WNW 6.9 mph - N/A   Clear
8:14 AM 10.4 °F -2.4 °F 6.8 °F 85% 30.33 in 10.0 mi NW 9.2 mph - N/A   Clear
8:34 AM 12.2 °F -1.8 °F 8.6 °F 85% 30.35 in 10.0 mi NW 11.5 mph - N/A   Clear
8:54 AM 12.2 °F 0.7 °F 8.6 °F 85% 30.36 in 10.0 mi WNW 8.1 mph - N/A   Clear
9:14 AM 12.2 °F -0.2 °F 8.6 °F 85% 30.36 in 10.0 mi NW 9.2 mph - N/A   Clear
9:34 AM 12.2 °F 0.7 °F 8.6 °F 85% 30.38 in 10.0 mi NW 8.1 mph - N/A   Clear
9:54 AM 15.8 °F 6.1 °F 8.6 °F 73% 30.38 in 10.0 mi WNW 6.9 mph - N/A   Clear
10:14 AM 15.8 °F 4.2 °F 8.6 °F 73% 30.38 in 10.0 mi WNW 9.2 mph - N/A   Clear
10:34 AM 15.8 °F 5.1 °F 8.6 °F 73% 30.39 in 10.0 mi NW 8.1 mph - N/A   Clear
10:53 AM 15.8 °F 5.1 °F 8.6 °F 73% 30.39 in 10.0 mi WNW 8.1 mph - N/A   Clear
11:14 AM 17.6 °F 7.3 °F 8.6 °F 68% 30.39 in 10.0 mi West 8.1 mph - N/A   Clear
11:34 AM 17.6 °F 7.3 °F 8.6 °F 68% 30.39 in 10.0 mi West 8.1 mph - N/A   Clear
11:54 AM 19.4 °F 9.5 °F 8.6 °F 63% 30.39 in 10.0 mi WNW 8.1 mph - N/A   Clear
12:14 PM 19.4 °F 7.9 °F 8.6 °F 63% 30.38 in 10.0 mi West 10.4 mph - N/A   Clear
12:34 PM 19.4 °F 8.6 °F 8.6 °F 63% 30.38 in 10.0 mi WNW 9.2 mph - N/A   Clear
12:54 PM 21.2 °F 10.1 °F 8.6 °F 58% 30.38 in 10.0 mi WNW 10.4 mph 16.1 mph N/A   Clear
1:14 PM 21.2 °F 10.1 °F 6.8 °F 54% 30.38 in 10.0 mi NW 10.4 mph - N/A   Clear
1:34 PM 21.2 °F 10.9 °F 6.8 °F 54% 30.37 in 10.0 mi NW 9.2 mph - N/A   Clear
1:54 PM 21.2 °F 11.7 °F 6.8 °F 54% 30.37 in 10.0 mi WNW 8.1 mph - N/A   Clear
2:14 PM 21.2 °F 11.7 °F 6.8 °F 54% 30.37 in 10.0 mi NNW 8.1 mph - N/A   Clear
2:34 PM 21.2 °F 11.7 °F 6.8 °F 54% 30.36 in 10.0 mi NNW 8.1 mph - N/A   Clear
2:54 PM 21.2 °F 10.9 °F 6.8 °F 54% 30.36 in 10.0 mi WNW 9.2 mph - N/A   Clear
3:14 PM 21.2 °F 10.9 °F 6.8 °F 54% 30.37 in 10.0 mi WNW 9.2 mph - N/A   Clear
3:34 PM 21.2 °F 10.9 °F 6.8 °F 54% 30.38 in 10.0 mi WNW 9.2 mph - N/A   Clear
3:54 PM 19.4 °F 9.5 °F 6.8 °F 58% 30.38 in 10.0 mi WNW 8.1 mph - N/A   Clear
4:14 PM 19.4 °F 10.4 °F 6.8 °F 58% 30.37 in 10.0 mi WNW 6.9 mph - N/A   Clear
4:34 PM 19.4 °F 12.8 °F 6.8 °F 58% 30.38 in 10.0 mi WNW 4.6 mph - N/A   Clear
4:54 PM 17.6 °F 9.3 °F 6.8 °F 63% 30.38 in 10.0 mi WNW 5.8 mph - N/A   Clear
5:14 PM 17.6 °F 12.3 °F 6.8 °F 63% 30.38 in 10.0 mi WNW 3.5 mph - N/A   Clear
5:34 PM 15.8 °F 10.2 °F 6.8 °F 68% 30.39 in 10.0 mi West 3.5 mph - N/A   Clear
5:54 PM 14.0 °F 6.5 °F 6.8 °F 73% 30.39 in 10.0 mi West 4.6 mph - N/A   Clear
6:14 PM 15.8 °F - 6.8 °F 68% 30.38 in 10.0 mi Calm Calm - N/A   Clear
6:34 PM 12.2 °F - 6.8 °F 79% 30.38 in 10.0 mi Calm Calm - N/A   Clear
6:54 PM 14.0 °F - 6.8 °F 73% 30.38 in 10.0 mi Calm Calm - N/A   Clear
7:14 PM 12.2 °F - 6.8 °F 79% 30.38 in 10.0 mi Calm Calm - N/A   Clear
7:34 PM 10.4 °F - 6.8 °F 85% 30.37 in 10.0 mi Calm Calm - N/A   Clear
7:54 PM 12.2 °F - 6.8 °F 79% 30.37 in 10.0 mi Calm Calm - N/A   Clear
8:14 PM 12.2 °F 6.1 °F 6.8 °F 79% 30.37 in 10.0 mi South 3.5 mph - N/A   Clear
8:34 PM 12.2 °F - 6.8 °F 79% 30.37 in 10.0 mi Calm Calm - N/A   Clear
8:54 PM 12.2 °F 6.1 °F 6.8 °F 79% 30.37 in 10.0 mi SSW 3.5 mph - N/A   Clear
9:14 PM 12.2 °F 6.1 °F 6.8 °F 79% 30.38 in 10.0 mi South 3.5 mph - N/A   Clear
9:34 PM 12.2 °F 6.1 °F 8.6 °F 85% 30.37 in 10.0 mi South 3.5 mph - N/A   Clear
9:54 PM 12.2 °F 6.1 °F 8.6 °F 85% 30.37 in 10.0 mi South 3.5 mph - N/A   Clear
10:14 PM 12.2 °F - 6.8 °F 79% 30.36 in 10.0 mi Calm Calm - N/A   Clear
10:34 PM 12.2 °F - 6.8 °F 79% 30.35 in 10.0 mi Calm Calm - N/A   Clear
10:54 PM 10.4 °F - 6.8 °F 85% 30.35 in 10.0 mi Calm Calm - N/A   Clear
11:13 PM 10.4 °F - 6.8 °F 85% 30.35 in 10.0 mi Calm Calm - N/A   Clear
11:34 PM 12.2 °F - 6.8 °F 79% 30.35 in 10.0 mi Calm Calm - N/A   Clear
11:54 PM 12.2 °F - 6.8 °F 79% 30.35 in 10.0 mi Calm Calm - N/A   Clear